Time;durP1;ratioP1;P1;durP2;ratioP2;P2;SDS_P1;SDS_P2;PMS_P1;PMS_P2;Temp;Humidity;BMP_temperature;BMP_pressure;BME280_temperature;BME280_humidity;BME280_pressure;Samples;Min_cycle;Max_cycle;Signal;HPM_P1;HPM_P2
2024/04/16 00:00:12;;;;;;;0.10;0.10;;;18.90;50.50;;;;;;5441794;26;20255;-51
2024/04/16 00:02:42;;;;;;;0.00;0.00;;;19.00;50.50;;;;;;5429971;26;20222;-52
2024/04/16 00:05:14;;;;;;;0.00;0.00;;;19.00;50.50;;;;;;5405499;26;20233;-53
2024/04/16 00:07:43;;;;;;;0.10;0.10;;;19.00;50.50;;;;;;5405351;26;20806;-53
2024/04/16 00:10:19;;;;;;;0.05;0.05;;;19.10;50.60;;;;;;5405059;26;20266;-52
2024/04/16 00:12:49;;;;;;;0.00;0.00;;;19.10;50.60;;;;;;5405342;26;20804;-48
2024/04/16 00:15:22;;;;;;;0.10;0.10;;;19.20;50.60;;;;;;5404957;26;20229;-47
2024/04/16 00:17:51;;;;;;;0.10;0.10;;;19.20;50.60;;;;;;5405016;26;20349;-48
2024/04/16 00:20:23;;;;;;;0.10;0.10;;;19.20;50.50;;;;;;5405891;26;20314;-48
2024/04/16 00:22:53;;;;;;;0.03;0.03;;;19.20;51.20;;;;;;5405707;26;20255;-47
2024/04/16 00:25:29;;;;;;;0.10;0.10;;;19.30;50.60;;;;;;5405625;26;20301;-49
2024/04/16 00:27:58;;;;;;;0.10;0.10;;;19.30;50.60;;;;;;5405566;26;20271;-47
2024/04/16 00:30:30;;;;;;;0.10;0.10;;;19.40;50.50;;;;;;5404017;26;20237;-48
2024/04/16 00:33:08;;;;;;;0.10;0.10;;;19.40;50.40;;;;;;5404613;26;20326;-48
2024/04/16 00:35:37;;;;;;;0.08;0.08;;;19.40;50.30;;;;;;5409909;26;20587;-51
2024/04/16 00:38:10;;;;;;;0.10;0.10;;;19.50;50.30;;;;;;5406674;26;20646;-51
2024/04/16 00:40:42;;;;;;;0.10;0.10;;;19.50;50.10;;;;;;5405202;26;20325;-47
2024/04/16 00:43:24;;;;;;;0.10;0.10;;;19.50;50.00;;;;;;5404894;26;20226;-49
2024/04/16 00:45:55;;;;;;;0.10;0.10;;;19.60;49.90;;;;;;5404823;26;20257;-50
2024/04/16 00:48:28;;;;;;;0.10;0.10;;;19.60;50.00;;;;;;5404947;26;20225;-51
2024/04/16 00:50:59;;;;;;;0.00;0.00;;;19.70;50.20;;;;;;5405126;26;20314;-50
2024/04/16 00:53:31;;;;;;;0.10;0.10;;;19.70;50.20;;;;;;5405008;26;20233;-50
2024/04/16 00:56:05;;;;;;;0.10;0.10;;;19.80;50.30;;;;;;5404372;26;20340;-49
2024/04/16 00:58:39;;;;;;;0.08;0.08;;;19.80;50.20;;;;;;5404251;26;20222;-51
2024/04/16 01:01:08;;;;;;;0.10;0.10;;;19.90;50.20;;;;;;5408918;26;20283;-52
2024/04/16 01:03:43;;;;;;;0.10;0.10;;;19.90;50.10;;;;;;5429853;26;20236;-53
2024/04/16 01:06:12;;;;;;;0.10;0.10;;;20.00;50.10;;;;;;5440651;26;20220;-49
2024/04/16 01:08:45;;;;;;;0.10;0.10;;;20.00;50.10;;;;;;5404537;26;20238;-55
2024/04/16 01:11:24;;;;;;;0.10;0.10;;;20.00;50.00;;;;;;5405158;26;20214;-53
2024/04/16 01:13:56;;;;;;;0.10;0.10;;;20.10;50.00;;;;;;5404446;26;20234;-55
2024/04/16 01:16:25;;;;;;;0.05;0.05;;;20.10;50.00;;;;;;5404699;26;20225;-53
2024/04/16 01:18:58;;;;;;;0.10;0.10;;;20.10;50.00;;;;;;5404913;26;20222;-51
2024/04/16 01:21:27;;;;;;;0.00;0.00;;;20.20;49.90;;;;;;5404628;26;20328;-55
2024/04/16 01:24:03;;;;;;;0.00;0.00;;;20.20;49.90;;;;;;5404267;26;20234;-50
2024/04/16 01:26:32;;;;;;;0.10;0.10;;;20.30;50.00;;;;;;5404672;26;20221;-55
2024/04/16 01:29:04;;;;;;;0.10;0.10;;;20.30;49.90;;;;;;5404287;26;20234;-51
2024/04/16 01:31:34;;;;;;;0.10;0.10;;;20.40;49.80;;;;;;5403975;26;20259;-53
2024/04/16 01:34:06;;;;;;;0.00;0.00;;;20.40;49.70;;;;;;5404086;26;20280;-54
2024/04/16 01:36:36;;;;;;;0.10;0.10;;;20.50;49.70;;;;;;5404551;26;20222;-52
2024/04/16 01:39:11;;;;;;;0.00;0.00;;;20.50;49.60;;;;;;5404111;26;20222;-55
2024/04/16 01:41:40;;;;;;;0.00;0.00;;;20.60;49.60;;;;;;5404856;26;20325;-50
2024/04/16 01:44:13;;;;;;;0.00;0.00;;;20.70;49.50;;;;;;5421808;26;20259;-49
2024/04/16 01:46:42;;;;;;;0.10;0.10;;;20.70;49.50;;;;;;5443490;26;20220;-52
2024/04/16 01:49:14;;;;;;;0.00;0.00;;;20.70;49.50;;;;;;5443143;26;20755;-48
2024/04/16 01:51:43;;;;;;;0.00;0.00;;;20.80;49.50;;;;;;5443716;26;20221;-48
2024/04/16 01:54:19;;;;;;;0.00;0.00;;;20.80;49.40;;;;;;5415735;26;20637;-53
2024/04/16 01:56:50;;;;;;;0.10;0.10;;;20.90;49.40;;;;;;5407569;26;20251;-52
2024/04/16 01:59:23;;;;;;;0.00;0.00;;;20.90;49.40;;;;;;5407691;26;20298;-52
2024/04/16 02:01:52;;;;;;;0.00;0.00;;;20.90;49.40;;;;;;5407515;26;20269;-50
2024/04/16 02:04:24;;;;;;;0.00;0.00;;;21.00;49.40;;;;;;5443409;26;20724;-49
2024/04/16 02:06:53;;;;;;;0.10;0.10;;;21.00;49.40;;;;;;5443302;26;20224;-51
2024/04/16 02:09:29;;;;;;;0.00;0.00;;;21.10;49.30;;;;;;5443016;26;20320;-50
2024/04/16 02:11:59;;;;;;;0.10;0.10;;;21.10;49.20;;;;;;5443147;26;20559;-48
2024/04/16 02:14:31;;;;;;;0.10;0.10;;;21.10;49.10;;;;;;5443348;26;20287;-50
2024/04/16 02:17:00;;;;;;;0.00;0.00;;;21.20;49.10;;;;;;5443361;26;20613;-51
2024/04/16 02:19:33;;;;;;;0.00;0.00;;;21.20;49.00;;;;;;5443206;26;20264;-48
2024/04/16 02:22:02;;;;;;;0.08;0.08;;;21.30;49.00;;;;;;5442702;26;20216;-49
2024/04/16 02:24:38;;;;;;;0.10;0.10;;;21.30;48.90;;;;;;5442374;26;20784;-53
2024/04/16 02:27:08;;;;;;;0.00;0.00;;;21.30;48.80;;;;;;5442733;26;20254;-51
2024/04/16 02:29:40;;;;;;;0.10;0.10;;;21.40;48.90;;;;;;5442913;26;20300;-48
2024/04/16 02:32:10;;;;;;;0.10;0.10;;;21.40;48.90;;;;;;5442781;26;20604;-54
2024/04/16 02:34:42;;;;;;;0.10;0.10;;;21.50;48.90;;;;;;5423590;26;20604;-50
2024/04/16 02:37:11;;;;;;;0.08;0.08;;;21.50;49.00;;;;;;5428406;26;20275;-53
2024/04/16 02:39:47;;;;;;;0.00;0.00;;;21.50;49.00;;;;;;5442824;26;20284;-50
2024/04/16 02:42:16;;;;;;;0.05;0.05;;;21.60;49.10;;;;;;5442649;26;20219;-52
2024/04/16 02:44:48;;;;;;;0.10;0.10;;;21.60;49.10;;;;;;5442475;26;20248;-48
2024/04/16 02:47:17;;;;;;;0.10;0.10;;;21.60;49.10;;;;;;5442972;26;20217;-53
2024/04/16 02:49:50;;;;;;;0.03;0.03;;;21.70;49.20;;;;;;5442390;26;20623;-50
2024/04/16 02:52:19;;;;;;;0.10;0.10;;;21.70;49.20;;;;;;5441498;26;20566;-50
2024/04/16 02:54:56;;;;;;;0.10;0.10;;;21.70;49.20;;;;;;5442110;26;20287;-51
2024/04/16 02:57:25;;;;;;;0.10;0.10;;;21.80;49.30;;;;;;5442840;26;20224;-51
2024/04/16 02:59:57;;;;;;;0.10;0.10;;;21.80;49.30;;;;;;5442481;26;20744;-49
2024/04/16 03:02:26;;;;;;;0.10;0.10;;;21.80;49.30;;;;;;5442388;26;20221;-50
2024/04/16 03:04:58;;;;;;;0.00;0.00;;;21.90;49.40;;;;;;5441571;26;20236;-50
2024/04/16 03:07:28;;;;;;;0.00;0.00;;;21.90;49.40;;;;;;5435710;26;20664;-52
2024/04/16 03:10:04;;;;;;;0.00;0.00;;;22.00;49.30;;;;;;5436163;26;20229;-53
2024/04/16 03:12:33;;;;;;;0.10;0.10;;;22.00;49.30;;;;;;5442341;26;20631;-54
2024/04/16 03:15:05;;;;;;;0.10;0.10;;;22.00;49.30;;;;;;5441929;26;20284;-54
2024/04/16 03:17:34;;;;;;;0.00;0.00;;;22.00;49.30;;;;;;5442355;26;20220;-52
2024/04/16 03:20:07;;;;;;;0.10;0.10;;;22.10;49.40;;;;;;5442557;26;20232;-52
2024/04/16 03:22:36;;;;;;;0.10;0.10;;;22.10;49.30;;;;;;5442208;26;20221;-53
2024/04/16 03:25:12;;;;;;;0.05;0.05;;;22.20;49.30;;;;;;5442215;26;20232;-54
2024/04/16 03:27:41;;;;;;;0.10;0.10;;;22.20;49.30;;;;;;5442444;26;20212;-55
2024/04/16 03:30:14;;;;;;;0.00;0.00;;;22.20;49.20;;;;;;5441768;26;20220;-54
2024/04/16 03:32:43;;;;;;;0.00;0.00;;;22.30;49.20;;;;;;5441225;26;20301;-53
2024/04/16 03:35:16;;;;;;;0.10;0.10;;;22.30;49.00;;;;;;5441415;26;20288;-54
2024/04/16 03:37:51;;;;;;;0.10;0.10;;;22.30;49.10;;;;;;5442834;26;20752;-55
2024/04/16 03:40:26;;;;;;;0.08;0.08;;;22.40;49.10;;;;;;5441776;26;20258;-51
2024/04/16 03:42:58;;;;;;;0.05;0.05;;;22.40;48.90;;;;;;5441656;26;20271;-55
2024/04/16 03:45:28;;;;;;;0.10;0.10;;;22.40;48.80;;;;;;5436129;26;20236;-55
2024/04/16 03:48:00;;;;;;;0.10;0.10;;;22.50;48.80;;;;;;5441996;26;20220;-54
2024/04/16 03:50:29;;;;;;;0.00;0.00;;;22.50;48.80;;;;;;5442547;26;20271;-56
2024/04/16 03:53:01;;;;;;;0.10;0.10;;;22.50;48.70;;;;;;5421367;26;20233;-53
2024/04/16 03:55:34;;;;;;;0.00;0.00;;;22.60;48.80;;;;;;5405883;26;20226;-50
2024/04/16 03:58:06;;;;;;;0.00;0.00;;;22.60;48.70;;;;;;5406414;26;20221;-55
2024/04/16 04:03:26;;;;;;;0.00;0.00;;;22.70;48.60;;;;;;5422435;26;20262;-51
2024/04/16 04:05:56;;;;;;;0.10;0.10;;;22.70;48.60;;;;;;5440352;26;20255;-51
2024/04/16 04:08:28;;;;;;;0.10;0.10;;;22.70;48.60;;;;;;5431393;26;20590;-48
2024/04/16 04:11:01;;;;;;;0.03;0.03;;;22.80;48.70;;;;;;5405580;26;20260;-48
2024/04/16 04:13:33;;;;;;;0.00;0.00;;;22.80;48.70;;;;;;5406175;26;20763;-52
2024/04/16 04:16:02;;;;;;;0.10;0.10;;;22.80;48.70;;;;;;5406027;26;20210;-53
2024/04/16 04:18:35;;;;;;;0.05;0.05;;;22.90;48.70;;;;;;5405405;26;20225;-50
2024/04/16 04:21:04;;;;;;;0.00;0.00;;;22.90;48.60;;;;;;5405088;26;20221;-50
2024/04/16 04:23:36;;;;;;;0.00;0.00;;;22.90;48.50;;;;;;5404444;26;20648;-49
2024/04/16 04:26:10;;;;;;;0.00;0.00;;;22.90;48.50;;;;;;5405583;26;20331;-50
2024/04/16 04:28:42;;;;;;;0.00;0.00;;;23.00;48.50;;;;;;5405313;26;20600;-51
2024/04/16 04:31:18;;;;;;;0.00;0.00;;;23.00;48.40;;;;;;5405015;26;20312;-51
2024/04/16 04:33:51;;;;;;;0.10;0.10;;;23.00;48.40;;;;;;5433093;26;20231;-49
2024/04/16 04:36:20;;;;;;;0.10;0.10;;;23.10;48.40;;;;;;5430075;26;20793;-52
2024/04/16 04:38:52;;;;;;;0.00;0.00;;;23.10;48.40;;;;;;5404522;26;20221;-49
2024/04/16 04:41:24;;;;;;;0.00;0.00;;;23.10;48.30;;;;;;5404487;26;20222;-49
2024/04/16 04:43:57;;;;;;;0.00;0.00;;;23.20;48.30;;;;;;5405546;26;20284;-54
2024/04/16 04:46:27;;;;;;;0.00;0.00;;;23.20;48.20;;;;;;5405806;26;20229;-50
2024/04/16 04:48:59;;;;;;;0.00;0.00;;;23.20;48.20;;;;;;5405494;26;20255;-49
2024/04/16 04:51:28;;;;;;;0.00;0.00;;;23.30;48.30;;;;;;5405225;26;20221;-50
2024/04/16 04:54:01;;;;;;;0.03;0.03;;;23.30;48.20;;;;;;5404790;26;20340;-50
2024/04/16 04:56:33;;;;;;;0.00;0.00;;;23.30;48.20;;;;;;5404700;26;20217;-51
2024/04/16 04:59:05;;;;;;;0.00;0.00;;;23.30;48.20;;;;;;5404090;26;20221;-48
2024/04/16 05:01:35;;;;;;;0.00;0.00;;;23.30;48.10;;;;;;5404422;26;20584;-54
2024/04/16 05:04:07;;;;;;;0.00;0.00;;;23.40;48.20;;;;;;5404652;26;20668;-49
2024/04/16 05:06:37;;;;;;;0.00;0.00;;;23.40;48.20;;;;;;5410249;26;20336;-49
2024/04/16 05:09:10;;;;;;;0.08;0.08;;;23.40;48.20;;;;;;5440551;26;20217;-52
2024/04/16 05:11:42;;;;;;;0.00;0.00;;;23.40;48.10;;;;;;5440507;26;20236;-52
2024/04/16 05:14:15;;;;;;;0.00;0.00;;;23.40;48.40;;;;;;5435449;26;20275;-50
2024/04/16 05:16:44;;;;;;;0.00;0.00;;;23.40;48.10;;;;;;5440632;26;20220;-50
2024/04/16 05:19:16;;;;;;;0.00;0.00;;;23.40;48.20;;;;;;5440886;26;20278;-49
2024/04/16 05:21:45;;;;;;;0.00;0.00;;;23.50;48.20;;;;;;5440734;26;20220;-49
2024/04/16 05:24:17;;;;;;;0.10;0.10;;;23.50;48.20;;;;;;5440185;26;20649;-51
2024/04/16 05:26:50;;;;;;;0.00;0.00;;;23.50;48.20;;;;;;5439847;26;20264;-51
2024/04/16 05:29:23;;;;;;;0.05;0.05;;;23.50;48.20;;;;;;5439665;26;20984;-50
2024/04/16 05:31:52;;;;;;;0.10;0.10;;;23.50;48.20;;;;;;5431618;26;20232;-50
2024/04/16 05:34:24;;;;;;;0.00;0.00;;;23.50;48.50;;;;;;5403411;26;20626;-56
2024/04/16 05:36:53;;;;;;;0.00;0.00;;;23.50;48.50;;;;;;5405074;26;20221;-49
2024/04/16 05:39:26;;;;;;;0.00;0.00;;;23.50;48.40;;;;;;5404204;26;20358;-51
2024/04/16 05:41:58;;;;;;;0.00;0.00;;;23.50;48.50;;;;;;5403967;26;20221;-51
2024/04/16 05:44:30;;;;;;;0.00;0.00;;;23.50;48.50;;;;;;5404935;26;20234;-50
2024/04/16 05:46:59;;;;;;;0.00;0.00;;;23.50;48.50;;;;;;5403165;26;20229;-51
2024/04/16 05:49:32;;;;;;;0.10;0.10;;;23.50;48.60;;;;;;5403272;26;20248;-51
2024/04/16 05:52:01;;;;;;;0.00;0.00;;;23.50;48.50;;;;;;5404156;26;20218;-51
2024/04/16 05:54:33;;;;;;;0.00;0.00;;;23.50;48.50;;;;;;5407512;26;20361;-55
2024/04/16 05:57:06;;;;;;;0.00;0.00;;;23.50;49.10;;;;;;5403106;26;20694;-52
2024/04/16 05:59:38;;;;;;;0.10;0.10;;;23.50;48.50;;;;;;5403201;26;20276;-54
2024/04/16 06:02:08;;;;;;;0.00;0.00;;;23.50;48.50;;;;;;5406261;26;20218;-56
2024/04/16 06:04:40;;;;;;;0.00;0.00;;;23.50;48.50;;;;;;5438893;26;20248;-51
2024/04/16 06:07:09;;;;;;;0.10;0.10;;;23.50;48.50;;;;;;5438911;26;20217;-55
2024/04/16 06:09:42;;;;;;;0.10;0.10;;;23.50;48.50;;;;;;5438722;26;20285;-55
2024/04/16 06:12:15;;;;;;;0.10;0.10;;;23.50;48.50;;;;;;5439659;26;20355;-51
2024/04/16 06:14:47;;;;;;;0.10;0.10;;;23.50;48.50;;;;;;5439363;26;20272;-52
2024/04/16 06:17:16;;;;;;;0.10;0.10;;;23.50;48.40;;;;;;5438468;26;20781;-51
2024/04/16 06:19:50;;;;;;;0.10;0.10;;;23.50;48.40;;;;;;5438775;26;20224;-54
2024/04/16 06:22:19;;;;;;;0.10;0.10;;;23.50;48.30;;;;;;5439015;26;20267;-53
2024/04/16 06:24:51;;;;;;;0.08;0.08;;;23.50;48.30;;;;;;5439073;26;20700;-54
2024/04/16 06:27:25;;;;;;;0.10;0.10;;;23.40;48.20;;;;;;5439927;26;20221;-56
2024/04/16 06:29:57;;;;;;;0.10;0.10;;;23.40;48.10;;;;;;5442690;26;20317;-50
2024/04/16 06:32:26;;;;;;;0.00;0.00;;;23.40;48.10;;;;;;5442313;26;20519;-52
2024/04/16 06:34:58;;;;;;;0.10;0.10;;;23.40;48.10;;;;;;5416482;26;20242;-50
2024/04/16 06:37:28;;;;;;;0.10;0.10;;;23.40;48.10;;;;;;5409285;26;20751;-50
2024/04/16 06:40:00;;;;;;;0.00;0.00;;;23.30;48.00;;;;;;5442623;26;20224;-51
2024/04/16 06:42:32;;;;;;;0.00;0.00;;;23.30;48.00;;;;;;5442554;26;20220;-49
2024/04/16 06:45:05;;;;;;;0.03;0.03;;;23.30;48.10;;;;;;5442548;26;20228;-51
2024/04/16 06:47:34;;;;;;;0.03;0.03;;;23.30;48.10;;;;;;5442378;26;20217;-51
2024/04/16 06:50:06;;;;;;;0.00;0.00;;;23.30;48.20;;;;;;5442882;26;20768;-53
2024/04/16 06:52:39;;;;;;;0.03;0.03;;;23.30;48.20;;;;;;5442424;26;20925;-51
2024/04/16 06:55:08;;;;;;;0.10;0.10;;;23.30;48.30;;;;;;5442265;26;20263;-51
2024/04/16 06:57:43;;;;;;;0.00;0.00;;;23.30;48.20;;;;;;5442529;26;20217;-50
2024/04/16 07:00:14;;;;;;;0.05;0.05;;;23.30;48.20;;;;;;5442065;26;20283;-53
2024/04/16 07:02:46;;;;;;;0.00;0.00;;;23.30;48.20;;;;;;5429825;26;20272;-54
2024/04/16 07:05:15;;;;;;;0.03;0.03;;;23.20;48.10;;;;;;5406757;26;20283;-51
2024/04/16 07:07:47;;;;;;;0.10;0.10;;;23.20;48.10;;;;;;5408776;26;20222;-56
2024/04/16 07:10:17;;;;;;;0.00;0.00;;;23.20;47.90;;;;;;5406172;26;20698;-52
2024/04/16 07:12:52;;;;;;;0.00;0.00;;;23.20;47.90;;;;;;5405557;26;20652;-55
2024/04/16 07:15:21;;;;;;;0.00;0.00;;;23.20;47.90;;;;;;5404073;26;20229;-50
2024/04/16 07:17:53;;;;;;;0.10;0.10;;;23.20;47.90;;;;;;5406180;26;20234;-53
2024/04/16 07:20:23;;;;;;;0.10;0.10;;;23.20;47.90;;;;;;5423176;26;20335;-51
2024/04/16 07:22:55;;;;;;;0.10;0.10;;;23.10;47.90;;;;;;5425268;26;20279;-52
2024/04/16 07:25:24;;;;;;;0.00;0.00;;;23.10;47.90;;;;;;5423633;26;20229;-53
2024/04/16 07:28:00;;;;;;;0.10;0.10;;;23.10;48.00;;;;;;5420499;26;20226;-52
2024/04/16 07:30:29;;;;;;;0.10;0.10;;;23.10;48.10;;;;;;5406330;26;20252;-51
2024/04/16 07:33:02;;;;;;;0.00;0.00;;;23.10;48.20;;;;;;5407485;26;20244;-54
2024/04/16 07:35:31;;;;;;;0.00;0.00;;;23.10;48.20;;;;;;5418578;26;20233;-52
2024/04/16 07:38:03;;;;;;;0.00;0.00;;;23.10;48.10;;;;;;5402876;26;20225;-53
2024/04/16 07:40:33;;;;;;;0.10;0.10;;;23.10;48.20;;;;;;5399750;26;20267;-50
2024/04/16 07:43:09;;;;;;;0.00;0.00;;;23.10;48.20;;;;;;5401225;26;20281;-54
2024/04/16 07:45:38;;;;;;;0.00;0.00;;;23.10;48.10;;;;;;5401355;26;20213;-51
2024/04/16 07:48:11;;;;;;;0.10;0.10;;;23.10;48.20;;;;;;5401475;26;20604;-49
2024/04/16 07:50:40;;;;;;;0.10;0.10;;;23.00;48.20;;;;;;5404993;26;20260;-47
2024/04/16 07:53:12;;;;;;;0.10;0.10;;;23.10;48.10;;;;;;5399981;26;20225;-47
2024/04/16 07:55:42;;;;;;;0.00;0.00;;;23.10;48.10;;;;;;5400143;26;20309;-52
2024/04/16 07:58:17;;;;;;;0.03;0.03;;;23.10;48.10;;;;;;5400326;26;20275;-49
2024/04/16 08:00:47;;;;;;;0.10;0.10;;;23.10;48.00;;;;;;5401417;26;20259;-50
2024/04/16 08:03:19;;;;;;;0.00;0.00;;;23.00;47.90;;;;;;5400483;26;20221;-48
2024/04/16 08:05:48;;;;;;;0.00;0.00;;;23.00;47.90;;;;;;5401818;26;20222;-47
2024/04/16 08:08:20;;;;;;;0.00;0.00;;;23.00;47.90;;;;;;5400587;26;20225;-50
2024/04/16 08:10:50;;;;;;;0.00;0.00;;;23.00;47.90;;;;;;5400804;26;20217;-50
2024/04/16 08:13:29;;;;;;;0.00;0.00;;;23.00;47.90;;;;;;5401140;26;20564;-47
2024/04/16 08:15:58;;;;;;;0.10;0.10;;;23.00;47.90;;;;;;5400533;26;20214;-51
2024/04/16 08:18:31;;;;;;;0.00;0.00;;;23.00;47.90;;;;;;5400716;26;20252;-50
2024/04/16 08:21:00;;;;;;;0.00;0.00;;;23.00;48.00;;;;;;5401841;26;20599;-48
2024/04/16 08:23:32;;;;;;;0.08;0.08;;;23.00;48.00;;;;;;5400054;26;20847;-52
2024/04/16 08:26:02;;;;;;;0.00;0.00;;;22.90;47.90;;;;;;5400354;26;20218;-50
2024/04/16 08:28:38;;;;;;;0.00;0.00;;;22.90;47.90;;;;;;5411489;26;20542;-50
2024/04/16 08:31:08;;;;;;;0.00;0.00;;;22.90;47.90;;;;;;5426287;26;20279;-52
2024/04/16 08:33:40;;;;;;;0.00;0.00;;;22.90;47.90;;;;;;5436437;26;20224;-51
2024/04/16 08:36:09;;;;;;;0.05;0.05;;;22.90;47.90;;;;;;5435100;26;20740;-51
2024/04/16 08:38:42;;;;;;;0.00;0.00;;;22.90;47.90;;;;;;5436878;26;20291;-52
2024/04/16 08:41:11;;;;;;;0.00;0.00;;;22.90;47.90;;;;;;5440535;26;20224;-52
2024/04/16 08:43:48;;;;;;;0.08;0.08;;;22.90;47.90;;;;;;5441119;26;20791;-47
2024/04/16 08:46:19;;;;;;;0.00;0.00;;;22.90;47.90;;;;;;5441204;26;20957;-49
2024/04/16 08:48:52;;;;;;;0.00;0.00;;;22.90;47.90;;;;;;5420720;26;20237;-51
2024/04/16 08:51:23;;;;;;;0.00;0.00;;;22.90;47.90;;;;;;5404941;26;20289;-52
2024/04/16 08:53:56;;;;;;;0.10;0.10;;;22.90;47.90;;;;;;5404919;26;20233;-50
2024/04/16 08:56:26;;;;;;;0.00;0.00;;;22.90;47.90;;;;;;5404582;26;20272;-52
2024/04/16 08:59:02;;;;;;;0.00;0.00;;;22.80;47.80;;;;;;5404633;26;20317;-50
2024/04/16 09:01:32;;;;;;;0.00;0.00;;;22.80;47.80;;;;;;5405324;26;20217;-49
2024/04/16 09:04:05;;;;;;;0.00;0.00;;;22.80;47.80;;;;;;5430696;26;20724;-50
2024/04/16 09:06:34;;;;;;;0.00;0.00;;;22.80;47.80;;;;;;5420561;26;20240;-51
2024/04/16 09:09:07;;;;;;;0.00;0.00;;;22.80;47.80;;;;;;5400379;26;20221;-53
2024/04/16 09:11:37;;;;;;;0.00;0.00;;;22.80;47.80;;;;;;5404840;26;20803;-48
2024/04/16 09:14:12;;;;;;;0.00;0.00;;;22.70;47.80;;;;;;5399023;26;20345;-48
2024/04/16 09:16:42;;;;;;;0.00;0.00;;;22.70;47.80;;;;;;5399331;26;20229;-48
2024/04/16 09:19:15;;;;;;;0.00;0.00;;;22.70;47.80;;;;;;5403514;26;20697;-49
2024/04/16 09:21:45;;;;;;;0.10;0.10;;;22.70;47.80;;;;;;5399682;26;20218;-48
2024/04/16 09:24:23;;;;;;;0.00;0.00;;;22.70;47.70;;;;;;5431718;26;20692;-51
2024/04/16 09:26:52;;;;;;;0.08;0.08;;;22.70;47.70;;;;;;5435280;26;20263;-58
2024/04/16 09:29:32;;;;;;;0.00;0.00;;;22.70;47.60;;;;;;5433586;26;20746;-51
2024/04/16 09:32:02;;;;;;;0.03;0.03;;;22.70;47.40;;;;;;5402782;26;20951;-55
2024/04/16 09:34:35;;;;;;;0.10;0.10;;;22.70;47.20;;;;;;5398056;26;20280;-49
2024/04/16 09:37:04;;;;;;;0.08;0.08;;;22.70;47.10;;;;;;5398724;26;20317;-48
2024/04/16 09:39:37;;;;;;;0.00;0.00;;;22.70;47.00;;;;;;5398748;26;20217;-50
2024/04/16 09:42:10;;;;;;;0.00;0.00;;;22.70;47.10;;;;;;5398348;26;20252;-49
2024/04/16 09:44:42;;;;;;;0.00;0.00;;;22.70;47.00;;;;;;5398963;26;20221;-54
2024/04/16 09:47:16;;;;;;;0.08;0.08;;;22.70;46.90;;;;;;5398998;26;20619;-48
2024/04/16 09:49:45;;;;;;;0.00;0.00;;;22.70;46.90;;;;;;5399055;26;20850;-51
2024/04/16 09:52:18;;;;;;;0.00;0.00;;;22.70;46.90;;;;;;5399882;26;20706;-47
2024/04/16 09:54:49;;;;;;;0.00;0.00;;;22.70;46.90;;;;;;5404171;26;20237;-51
2024/04/16 09:57:22;;;;;;;0.10;0.10;;;22.70;46.80;;;;;;5398918;26;20317;-48
2024/04/16 09:59:55;;;;;;;0.00;0.00;;;22.70;46.70;;;;;;5416090;26;20339;-51
2024/04/16 10:02:31;;;;;;;0.00;0.00;;;22.70;46.60;;;;;;5435466;26;20245;-54
2024/04/16 10:05:01;;;;;;;0.10;0.10;;;22.70;46.70;;;;;;5438422;26;20236;-50
2024/04/16 10:07:34;;;;;;;0.00;0.00;;;22.70;47.00;;;;;;5438632;26;20217;-53
2024/04/16 10:10:03;;;;;;;0.10;0.10;;;22.70;47.10;;;;;;5430029;26;20284;-52
2024/04/16 10:12:37;;;;;;;0.00;0.00;;;22.70;47.10;;;;;;5402594;26;20272;-49
2024/04/16 10:15:10;;;;;;;0.00;0.00;;;22.70;47.00;;;;;;5401986;26;20344;-51
2024/04/16 10:17:55;;;;;;;0.00;0.00;;;22.70;47.00;;;;;;5402977;26;20218;-52
2024/04/16 10:20:27;;;;;;;0.00;0.00;;;22.70;47.10;;;;;;5401910;26;20781;-52
2024/04/16 10:23:04;;;;;;;0.00;0.00;;;22.70;47.20;;;;;;5402601;26;20935;-48
2024/04/16 10:25:34;;;;;;;0.10;0.10;;;22.70;47.30;;;;;;5403334;26;20225;-47
2024/04/16 10:28:07;;;;;;;0.10;0.10;;;22.70;47.30;;;;;;5403006;26;20221;-47
2024/04/16 10:30:41;;;;;;;0.00;0.00;;;22.70;47.30;;;;;;5403193;26;20259;-50
2024/04/16 10:33:16;;;;;;;0.00;0.00;;;22.70;47.40;;;;;;5420535;26;20356;-47
2024/04/16 10:35:47;;;;;;;0.10;0.10;;;22.70;47.40;;;;;;5432533;26;20574;-50
2024/04/16 10:38:21;;;;;;;0.10;0.10;;;22.70;47.40;;;;;;5402377;26;20233;-50
2024/04/16 10:40:56;;;;;;;0.00;0.00;;;22.70;47.40;;;;;;5402092;26;20265;-49
2024/04/16 10:43:30;;;;;;;0.00;0.00;;;22.70;47.40;;;;;;5402294;26;20221;-49
2024/04/16 10:46:06;;;;;;;0.10;0.10;;;22.70;47.50;;;;;;5403031;26;20313;-48
2024/04/16 10:48:38;;;;;;;0.00;0.00;;;22.70;47.40;;;;;;5402345;26;20256;-55
2024/04/16 10:51:13;;;;;;;0.10;0.10;;;22.70;47.30;;;;;;5402224;26;20261;-50
2024/04/16 10:53:46;;;;;;;0.10;0.10;;;22.70;47.30;;;;;;5401804;26;20275;-52
2024/04/16 10:56:16;;;;;;;0.08;0.08;;;22.70;47.40;;;;;;5401707;26;20272;-54
2024/04/16 10:58:48;;;;;;;0.10;0.10;;;22.70;47.40;;;;;;5428387;26;20806;-53
2024/04/16 11:01:23;;;;;;;0.10;0.10;;;22.70;47.40;;;;;;5406395;26;20333;-56
2024/04/16 11:03:55;;;;;;;0.00;0.00;;;22.70;47.40;;;;;;5402259;26;20229;-54
2024/04/16 11:06:25;;;;;;;0.08;0.08;;;22.70;47.40;;;;;;5402167;26;20222;-57
2024/04/16 11:08:57;;;;;;;0.00;0.00;;;22.70;47.50;;;;;;5401353;26;20325;-55
2024/04/16 11:11:26;;;;;;;0.10;0.10;;;22.70;47.70;;;;;;5401704;26;20234;-53
2024/04/16 11:13:59;;;;;;;0.00;0.00;;;22.70;47.70;;;;;;5401082;26;20229;-54
2024/04/16 11:16:32;;;;;;;0.00;0.00;;;22.70;47.80;;;;;;5425352;26;20229;-52
2024/04/16 11:19:05;;;;;;;0.00;0.00;;;22.70;47.70;;;;;;5437294;26;20266;-53
2024/04/16 11:21:35;;;;;;;0.00;0.00;;;22.70;47.80;;;;;;5438263;26;20771;-57
2024/04/16 11:24:09;;;;;;;0.00;0.00;;;22.60;47.70;;;;;;5435755;26;20229;-52
2024/04/16 11:26:39;;;;;;;0.10;0.10;;;22.60;47.80;;;;;;5417051;26;20747;-56
2024/04/16 11:29:12;;;;;;;0.00;0.00;;;22.60;48.40;;;;;;5416395;26;20240;-49
2024/04/16 11:31:45;;;;;;;0.00;0.00;;;22.60;47.70;;;;;;5424170;26;20234;-48
2024/04/16 11:34:20;;;;;;;0.08;0.08;;;22.60;47.70;;;;;;5420197;26;20232;-48
2024/04/16 11:36:52;;;;;;;0.10;0.10;;;22.60;47.70;;;;;;5422488;26;20249;-49
2024/04/16 11:39:25;;;;;;;0.00;0.00;;;22.50;47.70;;;;;;5422298;26;20272;-48
2024/04/16 11:41:54;;;;;;;0.10;0.10;;;22.60;47.60;;;;;;5423464;26;20280;-48
2024/04/16 11:44:29;;;;;;;0.00;0.00;;;22.60;47.60;;;;;;5421905;26;20308;-48
2024/04/16 11:47:02;;;;;;;0.00;0.00;;;22.60;47.50;;;;;;5422725;26;20787;-47
2024/04/16 11:49:34;;;;;;;0.00;0.00;;;22.60;47.50;;;;;;5424856;26;20747;-49
2024/04/16 11:52:04;;;;;;;0.10;0.10;;;22.60;47.40;;;;;;5425685;26;20229;-49
2024/04/16 11:54:38;;;;;;;0.00;0.00;;;22.60;47.40;;;;;;5423376;26;20238;-49
2024/04/16 11:57:07;;;;;;;0.00;0.00;;;22.60;47.40;;;;;;5421254;26;20722;-48
2024/04/16 11:59:40;;;;;;;0.00;0.00;;;22.60;47.40;;;;;;5422460;26;20559;-48
2024/04/16 12:02:13;;;;;;;0.10;0.10;;;22.60;47.40;;;;;;5412074;26;20684;-47
2024/04/16 12:04:45;;;;;;;0.10;0.10;;;22.50;47.40;;;;;;5420391;26;20312;-47
2024/04/16 12:07:14;;;;;;;0.10;0.10;;;22.50;47.50;;;;;;5422967;26;20268;-48
2024/04/16 12:09:46;;;;;;;0.00;0.00;;;22.50;47.50;;;;;;5421242;26;20237;-47
2024/04/16 12:12:15;;;;;;;0.00;0.00;;;22.50;47.60;;;;;;5422565;26;20224;-47
2024/04/16 12:14:48;;;;;;;0.10;0.10;;;22.40;47.60;;;;;;5419603;26;20325;-47
2024/04/16 12:17:20;;;;;;;0.03;0.03;;;22.40;47.60;;;;;;5406377;26;20217;-48
2024/04/16 12:19:52;;;;;;;0.00;0.00;;;22.40;47.60;;;;;;5435296;26;20233;-48
2024/04/16 12:22:21;;;;;;;0.10;0.10;;;22.40;47.70;;;;;;5441741;26;20712;-48
2024/04/16 12:24:54;;;;;;;0.00;0.00;;;22.40;47.70;;;;;;5441186;26;20271;-47
2024/04/16 12:27:23;;;;;;;0.00;0.00;;;22.40;47.70;;;;;;5441487;26;20216;-48
2024/04/16 12:29:55;;;;;;;0.08;0.08;;;22.40;47.70;;;;;;5441545;26;20213;-47
2024/04/16 12:32:28;;;;;;;0.00;0.00;;;22.40;47.70;;;;;;5441230;26;20221;-47
2024/04/16 12:35:00;;;;;;;0.00;0.00;;;22.30;47.60;;;;;;5440892;26;20293;-47
2024/04/16 12:37:30;;;;;;;0.00;0.00;;;22.30;47.60;;;;;;5441398;26;20319;-47
2024/04/16 12:40:02;;;;;;;0.00;0.00;;;22.30;47.70;;;;;;5440886;26;20216;-53
2024/04/16 12:42:31;;;;;;;0.00;0.00;;;22.30;47.60;;;;;;5441266;26;20220;-48
2024/04/16 12:45:03;;;;;;;0.00;0.00;;;22.30;47.60;;;;;;5441639;26;20286;-52
2024/04/16 12:47:36;;;;;;;0.00;0.00;;;22.30;47.70;;;;;;5440940;26;20685;-47
2024/04/16 12:50:09;;;;;;;0.00;0.00;;;22.30;47.70;;;;;;5440547;26;20216;-46
2024/04/16 12:52:38;;;;;;;0.10;0.10;;;22.30;47.70;;;;;;5441099;26;20312;-49
2024/04/16 12:55:11;;;;;;;0.05;0.05;;;22.30;47.70;;;;;;5411949;26;20714;-48
2024/04/16 12:57:40;;;;;;;0.10;0.10;;;22.20;47.60;;;;;;5404750;26;20217;-48
2024/04/16 13:00:13;;;;;;;0.10;0.10;;;22.20;47.60;;;;;;5404713;26;20267;-46
2024/04/16 13:02:46;;;;;;;0.00;0.00;;;22.20;47.70;;;;;;5416556;26;20221;-48
2024/04/16 13:05:19;;;;;;;0.00;0.00;;;22.20;47.70;;;;;;5435188;26;20236;-49
2024/04/16 13:07:49;;;;;;;0.00;0.00;;;22.20;47.70;;;;;;5441164;26;20606;-46
2024/04/16 13:10:21;;;;;;;0.00;0.00;;;22.10;47.70;;;;;;5440405;26;20268;-50
2024/04/16 13:12:50;;;;;;;0.00;0.00;;;22.10;47.80;;;;;;5440551;26;20220;-47